01WI weather

Prehn Cranberry Company Airport
Tomah, Wisconsin, United States

Public forecast

Using degrees Fahrenheit for public forecast. Weather courtesy of forecast.io.

Closest aviation weather report (METAR) to Prehn Cranberry Company Airport

Closest report is Volk Field, 7.3 nm (13.4 km) SE. Retrieved 2019/10/21 07:56 UTC (40 minutes ago):

KVOK 210756Z AUTO 12003KT 10SM FEW047 SCT170 07/07 A2976 RMK AO2 SLP083 T00680068

Closest aviation forecast (TAF) to Prehn Cranberry Company Airport

Closest forecast is Volk Field, 7.3 nm (13.4 km) SE. Retrieved 2019/10/21 09:12 UTC (0 seconds ago):

TAF KVOK 210900Z 2109/2215 10009KT 9000 BR BKN050 QNH2962INS BECMG 2111/2112 10012KT 9000 -SHRA BKN030 610804 QNH2945INS TEMPO 2112/2114 10015G25KT 6000 -TSRA BKN025CB BECMG 2113/2114 11015KT 8000 -SHRA BKN020 WS020/13050KT 610804 QNH2939INS TEMPO 2114/2117 11015G25KT 6000 -TSRA BKN025CB BECMG 2118/2119 13020KT 8000 -SHRA OVC015 WS020/15050KT 610804 QNH2925INS BECMG 2120/2121 18015G25KT 9999 NSW OVC025 QNH2923INS BECMG 2202/2203 18015KT 8000 -SHRA BKN015 630506 QNH2921INS BECMG 2208/2209 25015KT 8000 -SHRA BKN015 630506 QNH2922INS BECMG 2214/2215 26020G30KT 8000 -SHRA BKN015 630307 510003 QNH2933INS TX14/2120Z TN06/2208Z